sensor_id;sensor_type;location;lat;lon;timestamp;P1;durP1;ratioP1;P2;durP2;ratioP2
57385;SDS011;71829;56.976;21.958;2023-10-19T00:00:46;7.03;;;1.17;;
57385;SDS011;71829;56.976;21.958;2023-10-19T00:03:17;8.93;;;1.70;;
57385;SDS011;71829;56.976;21.958;2023-10-19T00:05:45;17.02;;;3.90;;
57385;SDS011;71829;56.976;21.958;2023-10-19T00:08:13;16.08;;;4.45;;
57385;SDS011;71829;56.976;21.958;2023-10-19T00:10:41;9.85;;;1.65;;
57385;SDS011;71829;56.976;21.958;2023-10-19T00:13:14;8.68;;;1.65;;
57385;SDS011;71829;56.976;21.958;2023-10-19T00:15:43;11.43;;;1.70;;
57385;SDS011;71829;56.976;21.958;2023-10-19T00:18:18;5.70;;;1.45;;
57385;SDS011;71829;56.976;21.958;2023-10-19T00:20:52;3.90;;;1.10;;
57385;SDS011;71829;56.976;21.958;2023-10-19T00:23:23;3.65;;;0.50;;
57385;SDS011;71829;56.976;21.958;2023-10-19T00:26:01;2.80;;;0.47;;
57385;SDS011;71829;56.976;21.958;2023-10-19T00:28:43;3.80;;;0.50;;
57385;SDS011;71829;56.976;21.958;2023-10-19T00:31:12;2.88;;;0.73;;
57385;SDS011;71829;56.976;21.958;2023-10-19T00:33:40;2.17;;;0.95;;
57385;SDS011;71829;56.976;21.958;2023-10-19T00:36:08;2.28;;;0.43;;
57385;SDS011;71829;56.976;21.958;2023-10-19T00:38:40;2.30;;;0.38;;
57385;SDS011;71829;56.976;21.958;2023-10-19T00:41:18;2.97;;;0.30;;
57385;SDS011;71829;56.976;21.958;2023-10-19T00:44:04;2.15;;;0.35;;
57385;SDS011;71829;56.976;21.958;2023-10-19T00:46:38;2.33;;;0.43;;
57385;SDS011;71829;56.976;21.958;2023-10-19T00:49:09;3.67;;;0.40;;
57385;SDS011;71829;56.976;21.958;2023-10-19T00:51:40;2.50;;;0.30;;
57385;SDS011;71829;56.976;21.958;2023-10-19T00:54:24;1.45;;;0.20;;
57385;SDS011;71829;56.976;21.958;2023-10-19T00:57:19;2.78;;;0.38;;
57385;SDS011;71829;56.976;21.958;2023-10-19T00:59:47;4.57;;;0.40;;
57385;SDS011;71829;56.976;21.958;2023-10-19T01:02:16;1.88;;;0.40;;
57385;SDS011;71829;56.976;21.958;2023-10-19T01:04:48;1.77;;;0.32;;
57385;SDS011;71829;56.976;21.958;2023-10-19T01:07:34;1.38;;;0.85;;
57385;SDS011;71829;56.976;21.958;2023-10-19T01:10:05;2.05;;;0.40;;
57385;SDS011;71829;56.976;21.958;2023-10-19T01:12:38;1.75;;;0.17;;
57385;SDS011;71829;56.976;21.958;2023-10-19T01:15:07;1.15;;;0.20;;
57385;SDS011;71829;56.976;21.958;2023-10-19T01:17:48;2.13;;;0.35;;
57385;SDS011;71829;56.976;21.958;2023-10-19T01:20:24;2.85;;;0.30;;
57385;SDS011;71829;56.976;21.958;2023-10-19T01:22:59;2.97;;;0.65;;
57385;SDS011;71829;56.976;21.958;2023-10-19T01:25:56;5.97;;;0.40;;
57385;SDS011;71829;56.976;21.958;2023-10-19T01:28:30;0.80;;;0.20;;
57385;SDS011;71829;56.976;21.958;2023-10-19T01:31:09;0.60;;;0.20;;
57385;SDS011;71829;56.976;21.958;2023-10-19T01:33:58;5.35;;;0.30;;
57385;SDS011;71829;56.976;21.958;2023-10-19T01:39:20;2.08;;;0.28;;
57385;SDS011;71829;56.976;21.958;2023-10-19T01:41:47;2.20;;;0.30;;
57385;SDS011;71829;56.976;21.958;2023-10-19T01:44:17;3.42;;;0.20;;
57385;SDS011;71829;56.976;21.958;2023-10-19T01:46:47;1.83;;;0.45;;
57385;SDS011;71829;56.976;21.958;2023-10-19T01:49:15;5.60;;;0.40;;
57385;SDS011;71829;56.976;21.958;2023-10-19T01:51:52;3.55;;;0.20;;
57385;SDS011;71829;56.976;21.958;2023-10-19T01:54:21;0.90;;;0.68;;
57385;SDS011;71829;56.976;21.958;2023-10-19T01:56:52;1.80;;;0.30;;
57385;SDS011;71829;56.976;21.958;2023-10-19T01:59:23;2.53;;;0.38;;
57385;SDS011;71829;56.976;21.958;2023-10-19T02:01:54;1.85;;;0.20;;
57385;SDS011;71829;56.976;21.958;2023-10-19T02:04:23;1.58;;;0.20;;
57385;SDS011;71829;56.976;21.958;2023-10-19T02:06:52;2.65;;;0.22;;
57385;SDS011;71829;56.976;21.958;2023-10-19T02:09:20;1.88;;;0.20;;
57385;SDS011;71829;56.976;21.958;2023-10-19T02:11:53;2.63;;;0.93;;
57385;SDS011;71829;56.976;21.958;2023-10-19T02:14:25;3.97;;;0.50;;
57385;SDS011;71829;56.976;21.958;2023-10-19T02:16:56;3.97;;;0.57;;
57385;SDS011;71829;56.976;21.958;2023-10-19T02:19:25;3.83;;;0.90;;
57385;SDS011;71829;56.976;21.958;2023-10-19T02:21:54;1.40;;;0.20;;
57385;SDS011;71829;56.976;21.958;2023-10-19T02:24:22;3.10;;;0.45;;
57385;SDS011;71829;56.976;21.958;2023-10-19T02:26:50;5.47;;;0.40;;
57385;SDS011;71829;56.976;21.958;2023-10-19T02:29:18;4.95;;;0.22;;
57385;SDS011;71829;56.976;21.958;2023-10-19T02:31:45;3.42;;;0.30;;
57385;SDS011;71829;56.976;21.958;2023-10-19T02:34:14;1.83;;;0.30;;
57385;SDS011;71829;56.976;21.958;2023-10-19T02:36:43;2.42;;;0.20;;
57385;SDS011;71829;56.976;21.958;2023-10-19T02:39:11;1.75;;;0.38;;
57385;SDS011;71829;56.976;21.958;2023-10-19T02:41:42;2.10;;;0.25;;
57385;SDS011;71829;56.976;21.958;2023-10-19T02:44:14;1.35;;;0.30;;
57385;SDS011;71829;56.976;21.958;2023-10-19T02:46:52;1.27;;;0.20;;
57385;SDS011;71829;56.976;21.958;2023-10-19T02:49:24;2.83;;;0.47;;
57385;SDS011;71829;56.976;21.958;2023-10-19T02:51:53;1.63;;;0.30;;
57385;SDS011;71829;56.976;21.958;2023-10-19T02:54:22;1.52;;;0.20;;
57385;SDS011;71829;56.976;21.958;2023-10-19T02:56:54;2.50;;;0.25;;
57385;SDS011;71829;56.976;21.958;2023-10-19T02:59:25;2.72;;;0.43;;
57385;SDS011;71829;56.976;21.958;2023-10-19T03:01:56;2.00;;;0.30;;
57385;SDS011;71829;56.976;21.958;2023-10-19T03:04:29;2.17;;;0.38;;
57385;SDS011;71829;56.976;21.958;2023-10-19T03:06:57;0.88;;;0.13;;
57385;SDS011;71829;56.976;21.958;2023-10-19T03:09:26;3.00;;;0.32;;
57385;SDS011;71829;56.976;21.958;2023-10-19T03:11:56;4.80;;;0.70;;
57385;SDS011;71829;56.976;21.958;2023-10-19T03:14:26;3.10;;;0.40;;
57385;SDS011;71829;56.976;21.958;2023-10-19T03:16:55;5.05;;;0.38;;
57385;SDS011;71829;56.976;21.958;2023-10-19T03:19:22;1.63;;;0.20;;
57385;SDS011;71829;56.976;21.958;2023-10-19T03:21:53;3.20;;;0.52;;
57385;SDS011;71829;56.976;21.958;2023-10-19T03:24:26;2.88;;;0.25;;
57385;SDS011;71829;56.976;21.958;2023-10-19T03:27:14;3.60;;;0.40;;
57385;SDS011;71829;56.976;21.958;2023-10-19T03:29:52;2.53;;;0.40;;
57385;SDS011;71829;56.976;21.958;2023-10-19T03:32:26;2.28;;;0.30;;
57385;SDS011;71829;56.976;21.958;2023-10-19T03:34:55;1.80;;;0.30;;
57385;SDS011;71829;56.976;21.958;2023-10-19T03:37:24;2.42;;;0.30;;
57385;SDS011;71829;56.976;21.958;2023-10-19T03:39:52;1.92;;;0.77;;
57385;SDS011;71829;56.976;21.958;2023-10-19T03:42:23;4.15;;;0.30;;
57385;SDS011;71829;56.976;21.958;2023-10-19T03:44:59;1.85;;;0.20;;
57385;SDS011;71829;56.976;21.958;2023-10-19T03:47:34;1.23;;;0.35;;
57385;SDS011;71829;56.976;21.958;2023-10-19T03:50:02;2.45;;;0.40;;
57385;SDS011;71829;56.976;21.958;2023-10-19T03:52:36;5.18;;;1.10;;
57385;SDS011;71829;56.976;21.958;2023-10-19T03:55:04;6.85;;;1.52;;
57385;SDS011;71829;56.976;21.958;2023-10-19T03:57:38;4.22;;;1.00;;
57385;SDS011;71829;56.976;21.958;2023-10-19T04:00:13;7.38;;;1.52;;
57385;SDS011;71829;56.976;21.958;2023-10-19T04:02:45;11.38;;;2.67;;
57385;SDS011;71829;56.976;21.958;2023-10-19T04:05:13;19.63;;;5.35;;
57385;SDS011;71829;56.976;21.958;2023-10-19T04:07:49;8.57;;;4.05;;
57385;SDS011;71829;56.976;21.958;2023-10-19T04:10:21;9.35;;;2.45;;
57385;SDS011;71829;56.976;21.958;2023-10-19T04:13:01;15.75;;;6.05;;
57385;SDS011;71829;56.976;21.958;2023-10-19T04:15:30;7.93;;;2.38;;
57385;SDS011;71829;56.976;21.958;2023-10-19T04:18:01;15.98;;;6.40;;
57385;SDS011;71829;56.976;21.958;2023-10-19T04:20:28;10.50;;;4.60;;
57385;SDS011;71829;56.976;21.958;2023-10-19T04:23:01;15.45;;;3.55;;
57385;SDS011;71829;56.976;21.958;2023-10-19T04:25:42;7.03;;;2.65;;
57385;SDS011;71829;56.976;21.958;2023-10-19T04:28:13;6.70;;;1.10;;
57385;SDS011;71829;56.976;21.958;2023-10-19T04:30:41;4.97;;;1.83;;
57385;SDS011;71829;56.976;21.958;2023-10-19T04:33:09;7.88;;;2.75;;
57385;SDS011;71829;56.976;21.958;2023-10-19T04:35:36;10.32;;;3.20;;
57385;SDS011;71829;56.976;21.958;2023-10-19T04:40:35;5.45;;;1.75;;
57385;SDS011;71829;56.976;21.958;2023-10-19T04:43:03;10.63;;;2.88;;
57385;SDS011;71829;56.976;21.958;2023-10-19T04:45:32;14.70;;;5.88;;
57385;SDS011;71829;56.976;21.958;2023-10-19T04:47:59;16.73;;;6.93;;
57385;SDS011;71829;56.976;21.958;2023-10-19T04:50:29;18.92;;;7.65;;
57385;SDS011;71829;56.976;21.958;2023-10-19T04:52:57;14.40;;;6.88;;
57385;SDS011;71829;56.976;21.958;2023-10-19T04:55:24;16.98;;;7.40;;
57385;SDS011;71829;56.976;21.958;2023-10-19T04:57:52;23.13;;;8.77;;
57385;SDS011;71829;56.976;21.958;2023-10-19T05:00:19;20.55;;;8.75;;
57385;SDS011;71829;56.976;21.958;2023-10-19T05:02:48;25.02;;;10.23;;
57385;SDS011;71829;56.976;21.958;2023-10-19T05:05:16;25.30;;;8.63;;
57385;SDS011;71829;56.976;21.958;2023-10-19T05:07:44;23.25;;;8.95;;
57385;SDS011;71829;56.976;21.958;2023-10-19T05:10:11;16.92;;;6.95;;
57385;SDS011;71829;56.976;21.958;2023-10-19T05:12:39;20.45;;;6.70;;
57385;SDS011;71829;56.976;21.958;2023-10-19T05:15:06;23.17;;;7.07;;
57385;SDS011;71829;56.976;21.958;2023-10-19T05:17:34;25.85;;;8.00;;
57385;SDS011;71829;56.976;21.958;2023-10-19T05:20:02;21.73;;;6.18;;
57385;SDS011;71829;56.976;21.958;2023-10-19T05:22:32;15.35;;;4.60;;
57385;SDS011;71829;56.976;21.958;2023-10-19T05:25:00;16.55;;;5.45;;
57385;SDS011;71829;56.976;21.958;2023-10-19T05:27:27;29.25;;;9.50;;
57385;SDS011;71829;56.976;21.958;2023-10-19T05:29:55;33.33;;;13.68;;
57385;SDS011;71829;56.976;21.958;2023-10-19T05:32:22;48.20;;;17.67;;
57385;SDS011;71829;56.976;21.958;2023-10-19T05:34:51;37.58;;;13.88;;
57385;SDS011;71829;56.976;21.958;2023-10-19T05:37:19;34.40;;;14.73;;
57385;SDS011;71829;56.976;21.958;2023-10-19T05:39:46;35.03;;;16.65;;
57385;SDS011;71829;56.976;21.958;2023-10-19T05:42:14;35.60;;;16.92;;
57385;SDS011;71829;56.976;21.958;2023-10-19T05:44:41;39.33;;;15.60;;
57385;SDS011;71829;56.976;21.958;2023-10-19T05:47:09;40.33;;;16.23;;
57385;SDS011;71829;56.976;21.958;2023-10-19T05:49:36;24.60;;;10.93;;
57385;SDS011;71829;56.976;21.958;2023-10-19T05:52:04;23.00;;;9.02;;
57385;SDS011;71829;56.976;21.958;2023-10-19T05:54:31;16.20;;;6.85;;
57385;SDS011;71829;56.976;21.958;2023-10-19T05:56:59;15.65;;;5.25;;
57385;SDS011;71829;56.976;21.958;2023-10-19T05:59:26;12.38;;;4.00;;
57385;SDS011;71829;56.976;21.958;2023-10-19T06:01:55;20.70;;;6.93;;
57385;SDS011;71829;56.976;21.958;2023-10-19T06:04:23;19.48;;;7.25;;
57385;SDS011;71829;56.976;21.958;2023-10-19T06:06:51;12.85;;;4.75;;
57385;SDS011;71829;56.976;21.958;2023-10-19T06:09:18;9.23;;;3.47;;
57385;SDS011;71829;56.976;21.958;2023-10-19T06:11:46;10.75;;;2.90;;
57385;SDS011;71829;56.976;21.958;2023-10-19T06:14:13;13.02;;;4.95;;
57385;SDS011;71829;56.976;21.958;2023-10-19T06:16:41;12.50;;;4.40;;
57385;SDS011;71829;56.976;21.958;2023-10-19T06:19:09;11.60;;;5.57;;
57385;SDS011;71829;56.976;21.958;2023-10-19T06:21:37;13.40;;;5.47;;
57385;SDS011;71829;56.976;21.958;2023-10-19T06:24:04;10.25;;;3.40;;
57385;SDS011;71829;56.976;21.958;2023-10-19T06:26:32;11.77;;;2.72;;
57385;SDS011;71829;56.976;21.958;2023-10-19T06:29:01;6.38;;;2.05;;
57385;SDS011;71829;56.976;21.958;2023-10-19T06:31:30;6.35;;;1.77;;
57385;SDS011;71829;56.976;21.958;2023-10-19T06:33:58;6.57;;;2.03;;
57385;SDS011;71829;56.976;21.958;2023-10-19T06:36:27;7.78;;;1.27;;
57385;SDS011;71829;56.976;21.958;2023-10-19T06:38:55;5.88;;;1.23;;
57385;SDS011;71829;56.976;21.958;2023-10-19T06:41:23;5.43;;;1.00;;
57385;SDS011;71829;56.976;21.958;2023-10-19T06:43:50;7.10;;;2.00;;
57385;SDS011;71829;56.976;21.958;2023-10-19T06:46:18;7.82;;;1.83;;
57385;SDS011;71829;56.976;21.958;2023-10-19T06:48:46;6.47;;;1.52;;
57385;SDS011;71829;56.976;21.958;2023-10-19T06:51:13;9.02;;;1.55;;
57385;SDS011;71829;56.976;21.958;2023-10-19T06:53:43;11.05;;;4.03;;
57385;SDS011;71829;56.976;21.958;2023-10-19T06:56:11;12.90;;;4.00;;
57385;SDS011;71829;56.976;21.958;2023-10-19T06:58:38;16.75;;;4.93;;
57385;SDS011;71829;56.976;21.958;2023-10-19T07:01:09;15.68;;;4.97;;
57385;SDS011;71829;56.976;21.958;2023-10-19T07:03:37;17.08;;;5.50;;
57385;SDS011;71829;56.976;21.958;2023-10-19T07:06:04;12.23;;;4.63;;
57385;SDS011;71829;56.976;21.958;2023-10-19T07:08:40;25.15;;;5.90;;
57385;SDS011;71829;56.976;21.958;2023-10-19T07:11:09;23.92;;;7.35;;
57385;SDS011;71829;56.976;21.958;2023-10-19T07:13:37;12.95;;;5.97;;
57385;SDS011;71829;56.976;21.958;2023-10-19T07:16:06;16.40;;;5.47;;
57385;SDS011;71829;56.976;21.958;2023-10-19T07:18:35;11.68;;;4.72;;
57385;SDS011;71829;56.976;21.958;2023-10-19T07:21:03;11.38;;;3.45;;
57385;SDS011;71829;56.976;21.958;2023-10-19T07:23:32;10.93;;;2.67;;
57385;SDS011;71829;56.976;21.958;2023-10-19T07:25:59;8.45;;;2.90;;
57385;SDS011;71829;56.976;21.958;2023-10-19T07:28:27;6.80;;;2.55;;
57385;SDS011;71829;56.976;21.958;2023-10-19T07:30:55;4.53;;;1.63;;
57385;SDS011;71829;56.976;21.958;2023-10-19T07:33:23;5.47;;;1.15;;
57385;SDS011;71829;56.976;21.958;2023-10-19T07:35:51;3.85;;;0.77;;
57385;SDS011;71829;56.976;21.958;2023-10-19T07:38:27;2.50;;;0.60;;
57385;SDS011;71829;56.976;21.958;2023-10-19T07:40:56;3.90;;;0.40;;
57385;SDS011;71829;56.976;21.958;2023-10-19T07:43:23;2.47;;;0.50;;
57385;SDS011;71829;56.976;21.958;2023-10-19T07:45:52;3.63;;;0.80;;
57385;SDS011;71829;56.976;21.958;2023-10-19T07:48:20;5.70;;;1.02;;
57385;SDS011;71829;56.976;21.958;2023-10-19T07:50:47;4.43;;;1.30;;
57385;SDS011;71829;56.976;21.958;2023-10-19T07:53:15;5.20;;;1.15;;
57385;SDS011;71829;56.976;21.958;2023-10-19T07:55:43;4.10;;;0.60;;
57385;SDS011;71829;56.976;21.958;2023-10-19T07:58:11;5.28;;;2.60;;
57385;SDS011;71829;56.976;21.958;2023-10-19T08:00:38;4.65;;;1.77;;
57385;SDS011;71829;56.976;21.958;2023-10-19T08:03:09;4.47;;;1.23;;
57385;SDS011;71829;56.976;21.958;2023-10-19T08:05:40;4.32;;;0.80;;
57385;SDS011;71829;56.976;21.958;2023-10-19T08:08:07;3.15;;;0.70;;
57385;SDS011;71829;56.976;21.958;2023-10-19T08:10:35;1.83;;;0.57;;
57385;SDS011;71829;56.976;21.958;2023-10-19T08:13:03;5.03;;;0.60;;
57385;SDS011;71829;56.976;21.958;2023-10-19T08:15:30;2.20;;;0.40;;
57385;SDS011;71829;56.976;21.958;2023-10-19T08:17:58;2.42;;;0.30;;
57385;SDS011;71829;56.976;21.958;2023-10-19T08:20:26;1.27;;;0.20;;
57385;SDS011;71829;56.976;21.958;2023-10-19T08:23:03;1.63;;;0.57;;
57385;SDS011;71829;56.976;21.958;2023-10-19T08:25:32;3.65;;;0.50;;
57385;SDS011;71829;56.976;21.958;2023-10-19T08:28:20;1.70;;;0.32;;
57385;SDS011;71829;56.976;21.958;2023-10-19T08:30:48;3.03;;;0.60;;
57385;SDS011;71829;56.976;21.958;2023-10-19T08:33:28;2.95;;;0.20;;
57385;SDS011;71829;56.976;21.958;2023-10-19T08:35:56;2.38;;;0.30;;
57385;SDS011;71829;56.976;21.958;2023-10-19T08:38:27;1.83;;;0.20;;
57385;SDS011;71829;56.976;21.958;2023-10-19T08:40:55;1.23;;;0.30;;
57385;SDS011;71829;56.976;21.958;2023-10-19T08:43:23;1.65;;;0.22;;
57385;SDS011;71829;56.976;21.958;2023-10-19T08:45:50;2.38;;;0.20;;
57385;SDS011;71829;56.976;21.958;2023-10-19T08:48:18;1.55;;;0.30;;
57385;SDS011;71829;56.976;21.958;2023-10-19T08:50:46;1.30;;;0.20;;
57385;SDS011;71829;56.976;21.958;2023-10-19T08:53:18;0.55;;;0.20;;
57385;SDS011;71829;56.976;21.958;2023-10-19T08:55:46;0.70;;;0.20;;
57385;SDS011;71829;56.976;21.958;2023-10-19T08:58:16;1.08;;;0.22;;
57385;SDS011;71829;56.976;21.958;2023-10-19T09:00:50;1.42;;;0.20;;
57385;SDS011;71829;56.976;21.958;2023-10-19T09:03:23;0.63;;;0.25;;
57385;SDS011;71829;56.976;21.958;2023-10-19T09:05:52;1.58;;;0.25;;
57385;SDS011;71829;56.976;21.958;2023-10-19T09:08:21;1.45;;;0.20;;
57385;SDS011;71829;56.976;21.958;2023-10-19T09:10:49;1.45;;;0.10;;
57385;SDS011;71829;56.976;21.958;2023-10-19T09:13:21;0.65;;;0.10;;
57385;SDS011;71829;56.976;21.958;2023-10-19T09:15:50;1.05;;;0.75;;
57385;SDS011;71829;56.976;21.958;2023-10-19T09:18:23;2.50;;;0.20;;
57385;SDS011;71829;56.976;21.958;2023-10-19T09:20:55;2.58;;;0.28;;
57385;SDS011;71829;56.976;21.958;2023-10-19T09:23:29;0.80;;;0.10;;
57385;SDS011;71829;56.976;21.958;2023-10-19T09:25:58;0.52;;;0.10;;
57385;SDS011;71829;56.976;21.958;2023-10-19T09:28:34;1.90;;;0.30;;
57385;SDS011;71829;56.976;21.958;2023-10-19T09:31:03;1.38;;;0.22;;
57385;SDS011;71829;56.976;21.958;2023-10-19T09:33:34;1.15;;;0.20;;
57385;SDS011;71829;56.976;21.958;2023-10-19T09:36:02;1.50;;;0.20;;
57385;SDS011;71829;56.976;21.958;2023-10-19T09:38:46;0.95;;;0.17;;
57385;SDS011;71829;56.976;21.958;2023-10-19T09:41:20;0.52;;;0.10;;
57385;SDS011;71829;56.976;21.958;2023-10-19T09:43:49;2.10;;;0.17;;
57385;SDS011;71829;56.976;21.958;2023-10-19T09:46:21;2.47;;;0.30;;
57385;SDS011;71829;56.976;21.958;2023-10-19T09:48:49;0.40;;;0.10;;
57385;SDS011;71829;56.976;21.958;2023-10-19T09:51:18;2.78;;;0.20;;
57385;SDS011;71829;56.976;21.958;2023-10-19T09:53:48;1.75;;;0.30;;
57385;SDS011;71829;56.976;21.958;2023-10-19T09:58:45;1.60;;;0.20;;
57385;SDS011;71829;56.976;21.958;2023-10-19T10:01:12;4.00;;;0.55;;
57385;SDS011;71829;56.976;21.958;2023-10-19T10:03:49;1.15;;;0.10;;
57385;SDS011;71829;56.976;21.958;2023-10-19T10:08:55;0.68;;;0.10;;
57385;SDS011;71829;56.976;21.958;2023-10-19T10:11:26;0.82;;;0.43;;
57385;SDS011;71829;56.976;21.958;2023-10-19T10:13:57;1.15;;;0.17;;
57385;SDS011;71829;56.976;21.958;2023-10-19T10:16:28;0.95;;;0.10;;
57385;SDS011;71829;56.976;21.958;2023-10-19T10:18:57;1.00;;;0.10;;
57385;SDS011;71829;56.976;21.958;2023-10-19T10:21:30;1.83;;;0.20;;
57385;SDS011;71829;56.976;21.958;2023-10-19T10:24:00;1.00;;;0.10;;
57385;SDS011;71829;56.976;21.958;2023-10-19T10:26:30;1.15;;;0.20;;
57385;SDS011;71829;56.976;21.958;2023-10-19T10:29:10;1.23;;;0.17;;
57385;SDS011;71829;56.976;21.958;2023-10-19T10:31:44;0.90;;;0.10;;
57385;SDS011;71829;56.976;21.958;2023-10-19T10:37:03;1.85;;;0.55;;
57385;SDS011;71829;56.976;21.958;2023-10-19T10:39:34;1.35;;;0.15;;
57385;SDS011;71829;56.976;21.958;2023-10-19T10:42:05;1.92;;;0.25;;
57385;SDS011;71829;56.976;21.958;2023-10-19T10:47:02;0.82;;;0.10;;
57385;SDS011;71829;56.976;21.958;2023-10-19T10:49:30;1.20;;;0.20;;
57385;SDS011;71829;56.976;21.958;2023-10-19T10:51:57;2.53;;;0.50;;
57385;SDS011;71829;56.976;21.958;2023-10-19T10:54:25;1.25;;;0.20;;
57385;SDS011;71829;56.976;21.958;2023-10-19T10:56:52;0.68;;;0.10;;
57385;SDS011;71829;56.976;21.958;2023-10-19T10:59:20;0.75;;;0.10;;
57385;SDS011;71829;56.976;21.958;2023-10-19T11:01:48;0.88;;;0.10;;
57385;SDS011;71829;56.976;21.958;2023-10-19T11:04:15;1.15;;;0.20;;
57385;SDS011;71829;56.976;21.958;2023-10-19T11:06:49;1.85;;;0.30;;
57385;SDS011;71829;56.976;21.958;2023-10-19T11:09:17;1.58;;;0.30;;
57385;SDS011;71829;56.976;21.958;2023-10-19T11:11:45;2.08;;;0.20;;
57385;SDS011;71829;56.976;21.958;2023-10-19T11:14:13;1.95;;;0.20;;
57385;SDS011;71829;56.976;21.958;2023-10-19T11:16:40;1.70;;;0.30;;
57385;SDS011;71829;56.976;21.958;2023-10-19T11:19:10;0.82;;;0.17;;
57385;SDS011;71829;56.976;21.958;2023-10-19T11:21:37;1.15;;;0.20;;
57385;SDS011;71829;56.976;21.958;2023-10-19T11:24:05;4.35;;;2.15;;
57385;SDS011;71829;56.976;21.958;2023-10-19T11:26:39;7.18;;;3.08;;
57385;SDS011;71829;56.976;21.958;2023-10-19T11:29:07;1.58;;;0.20;;
57385;SDS011;71829;56.976;21.958;2023-10-19T11:31:36;0.98;;;0.20;;
57385;SDS011;71829;56.976;21.958;2023-10-19T11:34:05;1.00;;;0.10;;
57385;SDS011;71829;56.976;21.958;2023-10-19T11:36:33;1.02;;;0.10;;
57385;SDS011;71829;56.976;21.958;2023-10-19T11:39:01;1.92;;;0.20;;
57385;SDS011;71829;56.976;21.958;2023-10-19T11:41:30;1.25;;;0.20;;
57385;SDS011;71829;56.976;21.958;2023-10-19T11:43:58;1.15;;;0.20;;
57385;SDS011;71829;56.976;21.958;2023-10-19T11:46:26;1.30;;;0.10;;
57385;SDS011;71829;56.976;21.958;2023-10-19T11:48:56;1.25;;;0.25;;
57385;SDS011;71829;56.976;21.958;2023-10-19T11:51:23;3.50;;;0.30;;
57385;SDS011;71829;56.976;21.958;2023-10-19T11:53:51;5.30;;;0.13;;
57385;SDS011;71829;56.976;21.958;2023-10-19T11:56:18;2.20;;;0.20;;
57385;SDS011;71829;56.976;21.958;2023-10-19T11:58:47;0.40;;;0.10;;
57385;SDS011;71829;56.976;21.958;2023-10-19T12:01:15;1.13;;;0.10;;
57385;SDS011;71829;56.976;21.958;2023-10-19T12:03:45;3.28;;;0.32;;
57385;SDS011;71829;56.976;21.958;2023-10-19T12:06:15;2.60;;;0.35;;
57385;SDS011;71829;56.976;21.958;2023-10-19T12:08:46;2.17;;;0.17;;
57385;SDS011;71829;56.976;21.958;2023-10-19T12:11:14;0.93;;;0.20;;
57385;SDS011;71829;56.976;21.958;2023-10-19T12:13:42;4.32;;;0.32;;
57385;SDS011;71829;56.976;21.958;2023-10-19T12:16:10;2.47;;;0.20;;
57385;SDS011;71829;56.976;21.958;2023-10-19T12:18:50;0.73;;;0.10;;
57385;SDS011;71829;56.976;21.958;2023-10-19T12:21:18;1.83;;;0.57;;
57385;SDS011;71829;56.976;21.958;2023-10-19T12:23:54;1.40;;;0.25;;
57385;SDS011;71829;56.976;21.958;2023-10-19T12:26:23;2.05;;;0.20;;
57385;SDS011;71829;56.976;21.958;2023-10-19T12:28:51;2.45;;;0.20;;
57385;SDS011;71829;56.976;21.958;2023-10-19T12:31:19;3.22;;;0.40;;
57385;SDS011;71829;56.976;21.958;2023-10-19T12:33:48;1.67;;;0.30;;
57385;SDS011;71829;56.976;21.958;2023-10-19T12:36:16;2.03;;;0.22;;
57385;SDS011;71829;56.976;21.958;2023-10-19T12:38:50;0.47;;;0.10;;
57385;SDS011;71829;56.976;21.958;2023-10-19T12:41:19;1.88;;;0.20;;
57385;SDS011;71829;56.976;21.958;2023-10-19T12:43:47;1.52;;;0.50;;
57385;SDS011;71829;56.976;21.958;2023-10-19T12:46:19;3.80;;;0.30;;
57385;SDS011;71829;56.976;21.958;2023-10-19T12:48:48;4.82;;;0.68;;
57385;SDS011;71829;56.976;21.958;2023-10-19T12:51:16;5.57;;;0.70;;
57385;SDS011;71829;56.976;21.958;2023-10-19T12:53:52;2.28;;;0.30;;
57385;SDS011;71829;56.976;21.958;2023-10-19T12:56:20;4.72;;;0.63;;
57385;SDS011;71829;56.976;21.958;2023-10-19T12:58:51;6.35;;;0.88;;
57385;SDS011;71829;56.976;21.958;2023-10-19T13:01:18;3.50;;;0.55;;
57385;SDS011;71829;56.976;21.958;2023-10-19T13:03:48;6.50;;;1.02;;
57385;SDS011;71829;56.976;21.958;2023-10-19T13:06:18;5.80;;;0.73;;
57385;SDS011;71829;56.976;21.958;2023-10-19T13:08:46;1.58;;;0.32;;
57385;SDS011;71829;56.976;21.958;2023-10-19T13:11:14;1.25;;;0.13;;
57385;SDS011;71829;56.976;21.958;2023-10-19T13:13:44;2.05;;;0.20;;
57385;SDS011;71829;56.976;21.958;2023-10-19T13:16:13;1.77;;;0.63;;
57385;SDS011;71829;56.976;21.958;2023-10-19T13:18:40;2.05;;;0.20;;
57385;SDS011;71829;56.976;21.958;2023-10-19T13:21:08;0.93;;;0.13;;
57385;SDS011;71829;56.976;21.958;2023-10-19T13:23:38;2.58;;;0.35;;
57385;SDS011;71829;56.976;21.958;2023-10-19T13:26:05;4.38;;;0.25;;
57385;SDS011;71829;56.976;21.958;2023-10-19T13:28:33;1.98;;;0.30;;
57385;SDS011;71829;56.976;21.958;2023-10-19T13:31:03;4.72;;;0.65;;
57385;SDS011;71829;56.976;21.958;2023-10-19T13:33:30;10.55;;;2.20;;
57385;SDS011;71829;56.976;21.958;2023-10-19T13:35:58;6.03;;;1.10;;
57385;SDS011;71829;56.976;21.958;2023-10-19T13:38:26;5.03;;;0.60;;
57385;SDS011;71829;56.976;21.958;2023-10-19T13:40:53;2.45;;;0.50;;
57385;SDS011;71829;56.976;21.958;2023-10-19T13:43:21;2.42;;;0.35;;
57385;SDS011;71829;56.976;21.958;2023-10-19T13:45:49;2.00;;;0.32;;
57385;SDS011;71829;56.976;21.958;2023-10-19T13:48:19;1.80;;;0.22;;
57385;SDS011;71829;56.976;21.958;2023-10-19T13:50:47;7.00;;;1.33;;
57385;SDS011;71829;56.976;21.958;2023-10-19T13:53:16;3.85;;;0.50;;
57385;SDS011;71829;56.976;21.958;2023-10-19T13:55:45;5.10;;;0.50;;
57385;SDS011;71829;56.976;21.958;2023-10-19T13:58:12;1.83;;;0.30;;
57385;SDS011;71829;56.976;21.958;2023-10-19T14:00:43;6.05;;;1.42;;
57385;SDS011;71829;56.976;21.958;2023-10-19T14:03:11;2.78;;;0.57;;
57385;SDS011;71829;56.976;21.958;2023-10-19T14:05:41;3.60;;;0.80;;
57385;SDS011;71829;56.976;21.958;2023-10-19T14:08:09;2.08;;;0.55;;
57385;SDS011;71829;56.976;21.958;2023-10-19T14:10:37;6.20;;;1.23;;
57385;SDS011;71829;56.976;21.958;2023-10-19T14:13:09;8.95;;;2.10;;
57385;SDS011;71829;56.976;21.958;2023-10-19T14:15:41;6.85;;;1.42;;
57385;SDS011;71829;56.976;21.958;2023-10-19T14:18:09;7.15;;;1.63;;
57385;SDS011;71829;56.976;21.958;2023-10-19T14:20:40;4.88;;;0.68;;
57385;SDS011;71829;56.976;21.958;2023-10-19T14:23:07;5.18;;;1.13;;
57385;SDS011;71829;56.976;21.958;2023-10-19T14:25:38;4.55;;;0.80;;
57385;SDS011;71829;56.976;21.958;2023-10-19T14:28:07;3.95;;;0.52;;
57385;SDS011;71829;56.976;21.958;2023-10-19T14:30:36;2.95;;;0.40;;
57385;SDS011;71829;56.976;21.958;2023-10-19T14:33:04;3.38;;;0.50;;
57385;SDS011;71829;56.976;21.958;2023-10-19T14:35:37;3.17;;;0.50;;
57385;SDS011;71829;56.976;21.958;2023-10-19T14:38:09;2.53;;;0.40;;
57385;SDS011;71829;56.976;21.958;2023-10-19T14:40:40;2.78;;;0.70;;
57385;SDS011;71829;56.976;21.958;2023-10-19T14:43:14;2.35;;;0.40;;
57385;SDS011;71829;56.976;21.958;2023-10-19T14:45:42;3.28;;;0.32;;
57385;SDS011;71829;56.976;21.958;2023-10-19T14:48:10;3.50;;;0.77;;
57385;SDS011;71829;56.976;21.958;2023-10-19T14:50:37;2.63;;;0.40;;
57385;SDS011;71829;56.976;21.958;2023-10-19T14:53:05;3.53;;;0.70;;
57385;SDS011;71829;56.976;21.958;2023-10-19T14:55:32;3.80;;;0.60;;
57385;SDS011;71829;56.976;21.958;2023-10-19T14:58:00;4.15;;;0.30;;
57385;SDS011;71829;56.976;21.958;2023-10-19T15:00:28;1.33;;;0.20;;
57385;SDS011;71829;56.976;21.958;2023-10-19T15:03:03;1.98;;;0.30;;